JST736 YMLT-YMML
Flight info
| Callsign | JST736 |
|---|---|
| Flight time | 0h 42m |
| Altitude | 32000 |
| Route | LT H215 RAZZI W687 ML |
| Aircraft | A320/M-SDE3FGHIRWY/LB1 |
Departure
| Time | 2026-05-04 06:58 |
|---|---|
| Airport | Launceston Airport (YMLT) |
Arrival
| Time | 2026-05-04 07:40 |
|---|---|
| Airport | Melbourne Airport (YMML) |
| Time | Latitude | Longitude | Altitude | Speed | Heading |
|---|---|---|---|---|---|
| 2026-05-04 06:45 | -41.54314 | 147.20677 | 584 ft | 0 kts | 296° |
| 2026-05-04 06:52 | -41.54312 | 147.20672 | 583 ft | 2 kts | 296° |
| 2026-05-04 06:52 | -41.54304 | 147.20672 | 583 ft | 2 kts | 7° |
| 2026-05-04 06:53 | -41.54291 | 147.20698 | 583 ft | 4 kts | 74° |
| 2026-05-04 06:53 | -41.54305 | 147.20736 | 584 ft | 5 kts | 137° |
| 2026-05-04 06:53 | -41.54342 | 147.20768 | 584 ft | 7 kts | 148° |
| 2026-05-04 06:53 | -41.54389 | 147.20807 | 584 ft | 9 kts | 148° |
| 2026-05-04 06:54 | -41.54448 | 147.20857 | 585 ft | 12 kts | 147° |
| 2026-05-04 06:54 | -41.54532 | 147.20930 | 590 ft | 18 kts | 147° |
| 2026-05-04 06:54 | -41.54661 | 147.21039 | 588 ft | 24 kts | 148° |
| 2026-05-04 06:54 | -41.54809 | 147.21165 | 585 ft | 28 kts | 147° |
| 2026-05-04 06:55 | -41.54980 | 147.21312 | 584 ft | 29 kts | 147° |
| 2026-05-04 06:55 | -41.55150 | 147.21459 | 585 ft | 27 kts | 146° |
| 2026-05-04 06:55 | -41.55227 | 147.21548 | 588 ft | 10 kts | 115° |
| 2026-05-04 06:55 | -41.55225 | 147.21637 | 590 ft | 10 kts | 71° |
| 2026-05-04 06:56 | -41.55198 | 147.21693 | 591 ft | 4 kts | 20° |
| 2026-05-04 06:57 | -41.54091 | 147.20747 | 638 ft | 149 kts | 330° |
| 2026-05-04 06:58 | -41.53216 | 147.20011 | 1383 ft | 148 kts | 330° |
| 2026-05-04 06:58 | -41.52281 | 147.19411 | 2057 ft | 157 kts | 346° |
| 2026-05-04 06:58 | -41.51122 | 147.19283 | 2301 ft | 181 kts | 5° |
| 2026-05-04 06:58 | -41.49794 | 147.19457 | 2577 ft | 204 kts | 349° |
| 2026-05-04 06:59 | -41.48371 | 147.18843 | 2945 ft | 227 kts | 338° |
| 2026-05-04 06:59 | -41.46871 | 147.17987 | 3592 ft | 242 kts | 336° |
| 2026-05-04 06:59 | -41.45257 | 147.17032 | 3998 ft | 265 kts | 335° |
| 2026-05-04 06:59 | -41.43523 | 147.16016 | 4636 ft | 277 kts | 335° |
| 2026-05-04 07:01 | -41.28894 | 147.07961 | 8183 ft | 355 kts | 337° |
| 2026-05-04 07:01 | -41.26593 | 147.06712 | 8848 ft | 359 kts | 336° |
| 2026-05-04 07:02 | -41.24268 | 147.05448 | 9504 ft | 363 kts | 337° |
| 2026-05-04 07:02 | -41.21924 | 147.04173 | 10140 ft | 366 kts | 337° |
| 2026-05-04 07:02 | -41.19556 | 147.02889 | 10745 ft | 369 kts | 337° |
| 2026-05-04 07:02 | -41.17166 | 147.01596 | 11327 ft | 373 kts | 337° |
| 2026-05-04 07:03 | -41.14755 | 147.00292 | 11913 ft | 376 kts | 337° |
| 2026-05-04 07:03 | -41.12320 | 146.98974 | 12519 ft | 379 kts | 336° |
| 2026-05-04 07:03 | -41.09869 | 146.97650 | 13161 ft | 382 kts | 336° |
| 2026-05-04 07:03 | -41.07392 | 146.96315 | 13772 ft | 386 kts | 336° |
| 2026-05-04 07:04 | -41.04894 | 146.94968 | 14321 ft | 389 kts | 336° |
| 2026-05-04 07:04 | -41.02386 | 146.93617 | 14870 ft | 391 kts | 337° |
| 2026-05-04 07:04 | -40.99859 | 146.92254 | 15388 ft | 393 kts | 337° |
| 2026-05-04 07:04 | -40.97321 | 146.90884 | 15903 ft | 395 kts | 337° |
| 2026-05-04 07:05 | -40.94769 | 146.89509 | 16393 ft | 397 kts | 337° |
| 2026-05-04 07:05 | -40.92200 | 146.88129 | 16891 ft | 400 kts | 337° |
| 2026-05-04 07:05 | -40.89619 | 146.86744 | 17363 ft | 402 kts | 337° |
| 2026-05-04 07:05 | -40.87023 | 146.85350 | 17864 ft | 403 kts | 337° |
| 2026-05-04 07:06 | -40.81806 | 146.82551 | 18756 ft | 406 kts | 337° |
| 2026-05-04 07:06 | -40.79178 | 146.81148 | 19132 ft | 409 kts | 337° |
| 2026-05-04 07:06 | -40.76534 | 146.79738 | 19525 ft | 411 kts | 338° |
| 2026-05-04 07:07 | -40.73883 | 146.78321 | 19932 ft | 412 kts | 338° |
| 2026-05-04 07:08 | -40.55228 | 146.68392 | 22306 ft | 418 kts | 338° |
| 2026-05-04 07:09 | -40.52525 | 146.66958 | 22585 ft | 419 kts | 338° |
| 2026-05-04 07:09 | -40.49817 | 146.65524 | 22868 ft | 421 kts | 338° |
| 2026-05-04 07:09 | -40.47098 | 146.64084 | 23146 ft | 422 kts | 338° |
| 2026-05-04 07:09 | -40.44464 | 146.62391 | 23406 ft | 424 kts | 327° |
| 2026-05-04 07:10 | -40.42295 | 146.59760 | 23600 ft | 429 kts | 311° |
| 2026-05-04 07:10 | -40.40812 | 146.56328 | 23806 ft | 439 kts | 295° |
| 2026-05-04 07:12 | -40.53028 | 146.35510 | 23854 ft | 519 kts | 182° |
| 2026-05-04 07:12 | -40.55413 | 146.35752 | 23873 ft | 520 kts | 172° |
| 2026-05-04 07:12 | -40.58867 | 146.37107 | 23835 ft | 518 kts | 155° |
| 2026-05-04 07:12 | -40.61932 | 146.39568 | 23837 ft | 517 kts | 139° |
| 2026-05-04 07:13 | -40.64404 | 146.42958 | 23834 ft | 512 kts | 122° |
| 2026-05-04 07:13 | -40.66114 | 146.47049 | 23865 ft | 510 kts | 107° |
| 2026-05-04 07:13 | -40.66967 | 146.51533 | 23862 ft | 503 kts | 91° |
| 2026-05-04 07:14 | -40.62752 | 146.67497 | 23854 ft | 454 kts | 38° |
| 2026-05-04 07:14 | -40.60320 | 146.70053 | 23865 ft | 443 kts | 27° |
| 2026-05-04 07:15 | -40.57589 | 146.71841 | 23865 ft | 435 kts | 15° |
| 2026-05-04 07:15 | -40.54682 | 146.72827 | 23866 ft | 429 kts | 5° |
| 2026-05-04 07:15 | -40.51718 | 146.73015 | 23862 ft | 425 kts | 354° |
| 2026-05-04 07:15 | -40.48814 | 146.72417 | 23860 ft | 423 kts | 344° |
| 2026-05-04 07:16 | -40.46070 | 146.71059 | 23828 ft | 422 kts | 334° |
| 2026-05-04 07:16 | -40.43475 | 146.69258 | 23836 ft | 421 kts | 333° |
| 2026-05-04 07:16 | -40.40888 | 146.67453 | 23846 ft | 421 kts | 333° |
| 2026-05-04 07:16 | -40.38300 | 146.65655 | 23846 ft | 421 kts | 333° |
| 2026-05-04 07:17 | -40.35714 | 146.63862 | 23863 ft | 421 kts | 333° |
| 2026-05-04 07:17 | -40.33124 | 146.62067 | 23849 ft | 421 kts | 333° |
| 2026-05-04 07:17 | -40.30532 | 146.60279 | 23843 ft | 422 kts | 333° |
| 2026-05-04 07:17 | -40.27932 | 146.58492 | 23838 ft | 422 kts | 333° |
| 2026-05-04 07:18 | -40.25329 | 146.56704 | 23837 ft | 423 kts | 333° |
| 2026-05-04 07:18 | -40.22727 | 146.54917 | 23836 ft | 423 kts | 333° |
| 2026-05-04 07:18 | -40.20123 | 146.53127 | 23825 ft | 423 kts | 333° |
| 2026-05-04 07:18 | -40.17520 | 146.51341 | 23841 ft | 422 kts | 333° |
| 2026-05-04 07:19 | -40.14916 | 146.49556 | 23840 ft | 423 kts | 333° |
| 2026-05-04 07:19 | -40.12312 | 146.47768 | 23841 ft | 423 kts | 333° |
| 2026-05-04 07:19 | -40.09708 | 146.45981 | 23840 ft | 423 kts | 333° |
| 2026-05-04 07:19 | -40.07100 | 146.44193 | 23837 ft | 423 kts | 333° |
| 2026-05-04 07:20 | -40.01965 | 146.40674 | 23840 ft | 424 kts | 333° |
| 2026-05-04 07:20 | -39.91097 | 146.34769 | 23832 ft | 425 kts | 338° |
| 2026-05-04 07:20 | -39.87399 | 146.32859 | 23834 ft | 423 kts | 338° |
| 2026-05-04 07:20 | -39.81080 | 146.29603 | 23870 ft | 425 kts | 338° |
| 2026-05-04 07:22 | -39.03843 | 145.90472 | 23839 ft | 430 kts | 338° |
| 2026-05-04 07:22 | -38.92671 | 145.84907 | 23840 ft | 431 kts | 338° |
| 2026-05-04 07:23 | -38.81483 | 145.79331 | 23833 ft | 431 kts | 338° |
| 2026-05-04 07:23 | -38.70249 | 145.73765 | 23834 ft | 435 kts | 337° |
| 2026-05-04 07:23 | -38.58934 | 145.68171 | 23827 ft | 437 kts | 337° |
| 2026-05-04 07:23 | -38.50597 | 145.64053 | 23846 ft | 437 kts | 337° |
| 2026-05-04 07:24 | -38.47764 | 145.62649 | 23517 ft | 435 kts | 336° |
| 2026-05-04 07:24 | -38.45057 | 145.60950 | 22296 ft | 433 kts | 330° |
| 2026-05-04 07:24 | -38.42431 | 145.59130 | 21382 ft | 425 kts | 330° |
| 2026-05-04 07:24 | -38.39853 | 145.57342 | 20500 ft | 419 kts | 330° |
| 2026-05-04 07:25 | -38.37304 | 145.55580 | 19686 ft | 414 kts | 330° |
| 2026-05-04 07:26 | -38.20310 | 145.43918 | 13474 ft | 383 kts | 330° |
| 2026-05-04 07:27 | -38.17971 | 145.42318 | 12786 ft | 379 kts | 330° |
| 2026-05-04 07:27 | -38.15667 | 145.40740 | 12131 ft | 374 kts | 329° |
| 2026-05-04 07:27 | -38.13393 | 145.39181 | 11473 ft | 369 kts | 329° |
| 2026-05-04 07:27 | -38.11154 | 145.37650 | 10986 ft | 359 kts | 329° |
| 2026-05-04 07:28 | -38.09012 | 145.36188 | 10855 ft | 339 kts | 329° |
| 2026-05-04 07:28 | -38.06984 | 145.34806 | 10678 ft | 323 kts | 329° |
| 2026-05-04 07:28 | -38.05040 | 145.33483 | 10433 ft | 312 kts | 329° |
| 2026-05-04 07:28 | -38.03160 | 145.32207 | 10199 ft | 301 kts | 329° |
| 2026-05-04 07:29 | -38.01340 | 145.30970 | 9957 ft | 292 kts | 328° |
| 2026-05-04 07:29 | -37.99592 | 145.29762 | 9816 ft | 280 kts | 328° |
| 2026-05-04 07:29 | -37.97922 | 145.28590 | 9688 ft | 269 kts | 328° |
| 2026-05-04 07:29 | -37.96319 | 145.27459 | 9553 ft | 258 kts | 328° |
| 2026-05-04 07:30 | -37.94789 | 145.26380 | 9421 ft | 253 kts | 328° |
| 2026-05-04 07:30 | -37.93231 | 145.25281 | 9287 ft | 253 kts | 328° |
| 2026-05-04 07:30 | -37.91694 | 145.24198 | 9154 ft | 253 kts | 328° |
| 2026-05-04 07:30 | -37.90179 | 145.23135 | 9022 ft | 252 kts | 328° |
| 2026-05-04 07:31 | -37.88652 | 145.22067 | 8704 ft | 250 kts | 328° |
| 2026-05-04 07:31 | -37.87130 | 145.21005 | 8373 ft | 249 kts | 328° |
| 2026-05-04 07:33 | -37.82694 | 145.08735 | 6408 ft | 222 kts | 287° |
| 2026-05-04 07:33 | -37.82366 | 145.06840 | 6190 ft | 218 kts | 287° |
| 2026-05-04 07:33 | -37.82056 | 145.05031 | 6046 ft | 202 kts | 287° |
| 2026-05-04 07:33 | -37.81773 | 145.03367 | 5923 ft | 185 kts | 287° |
| 2026-05-04 07:34 | -37.81530 | 145.01819 | 5675 ft | 176 kts | 283° |
| 2026-05-04 07:34 | -37.81503 | 145.00267 | 5289 ft | 178 kts | 271° |
| 2026-05-04 07:34 | -37.81730 | 144.98716 | 4882 ft | 180 kts | 265° |
| 2026-05-04 07:34 | -37.82002 | 144.97201 | 4601 ft | 171 kts | 265° |
| 2026-05-04 07:35 | -37.82263 | 144.95742 | 4167 ft | 170 kts | 266° |
| 2026-05-04 07:35 | -37.82520 | 144.94275 | 3717 ft | 171 kts | 266° |
| 2026-05-04 07:35 | -37.82729 | 144.92796 | 3328 ft | 171 kts | 270° |
| 2026-05-04 07:35 | -37.82910 | 144.91319 | 3032 ft | 169 kts | 270° |
| 2026-05-04 07:36 | -37.83086 | 144.89850 | 2716 ft | 170 kts | 270° |
| 2026-05-04 07:36 | -37.83128 | 144.88390 | 2523 ft | 162 kts | 289° |
| 2026-05-04 07:38 | -37.76472 | 144.85577 | 1987 ft | 140 kts | 347° |
| 2026-05-04 07:38 | -37.75514 | 144.85399 | 1780 ft | 138 kts | 348° |
| 2026-05-04 07:38 | -37.74579 | 144.85226 | 1570 ft | 133 kts | 347° |
| 2026-05-04 07:38 | -37.73679 | 144.85059 | 1398 ft | 131 kts | 350° |
| 2026-05-04 07:39 | -37.72769 | 144.84889 | 1222 ft | 130 kts | 352° |
| 2026-05-04 07:39 | -37.71863 | 144.84719 | 1034 ft | 132 kts | 353° |
| 2026-05-04 07:39 | -37.70949 | 144.84548 | 850 ft | 130 kts | 352° |
| 2026-05-04 07:39 | -37.70058 | 144.84380 | 672 ft | 129 kts | 353° |
| 2026-05-04 07:40 | -37.69164 | 144.84209 | 501 ft | 130 kts | 354° |
| 2026-05-04 07:40 | -37.68267 | 144.84040 | 360 ft | 129 kts | 354° |
| 2026-05-04 07:40 | -37.67529 | 144.83905 | 369 ft | 83 kts | 351° |
| 2026-05-04 07:40 | -37.67125 | 144.83830 | 382 ft | 33 kts | 354° |
| 2026-05-04 07:41 | -37.66955 | 144.83856 | 387 ft | 19 kts | 12° |
| 2026-05-04 07:41 | -37.66872 | 144.83895 | 390 ft | 10 kts | 22° |
| 2026-05-04 07:41 | -37.66820 | 144.83922 | 392 ft | 7 kts | 22° |
| 2026-05-04 07:41 | -37.66773 | 144.83947 | 393 ft | 9 kts | 24° |
| 2026-05-04 07:42 | -37.66725 | 144.84014 | 393 ft | 11 kts | 72° |
| 2026-05-04 07:42 | -37.66728 | 144.84126 | 393 ft | 14 kts | 111° |
| 2026-05-04 07:42 | -37.66773 | 144.84185 | 393 ft | 0 kts | 154° |
| 2026-05-04 07:42 | -37.66776 | 144.84187 | 393 ft | 2 kts | 154° |
| 2026-05-04 07:43 | -37.66798 | 144.84193 | 392 ft | 5 kts | 171° |
| 2026-05-04 07:43 | -37.66831 | 144.84200 | 391 ft | 4 kts | 171° |
| 2026-05-04 07:43 | -37.66860 | 144.84206 | 390 ft | 0 kts | 171° |
| 2026-05-04 07:43 | -37.66870 | 144.84208 | 389 ft | 4 kts | 171° |
| 2026-05-04 07:44 | -37.66907 | 144.84215 | 388 ft | 5 kts | 173° |
| 2026-05-04 07:44 | -37.66930 | 144.84218 | 388 ft | 3 kts | 172° |
| 2026-05-04 07:44 | -37.66961 | 144.84224 | 387 ft | 7 kts | 173° |
| 2026-05-04 07:44 | -37.66971 | 144.84225 | 386 ft | 0 kts | 172° |
| 2026-05-04 07:45 | -37.66986 | 144.84228 | 386 ft | 2 kts | 172° |
| 2026-05-04 07:45 | -37.67003 | 144.84231 | 386 ft | 4 kts | 172° |
| 2026-05-04 07:45 | -37.67044 | 144.84238 | 385 ft | 8 kts | 172° |
| 2026-05-04 07:45 | -37.67115 | 144.84251 | 383 ft | 12 kts | 171° |
| 2026-05-04 07:46 | -37.67198 | 144.84267 | 382 ft | 12 kts | 171° |
| 2026-05-04 07:46 | -37.67285 | 144.84285 | 380 ft | 13 kts | 171° |
| 2026-05-04 07:46 | -37.67366 | 144.84300 | 378 ft | 9 kts | 171° |
| 2026-05-04 07:46 | -37.67409 | 144.84308 | 377 ft | 0 kts | 172° |
| 2026-05-04 07:47 | -37.67422 | 144.84310 | 377 ft | 4 kts | 173° |
| 2026-05-04 07:47 | -37.67455 | 144.84326 | 377 ft | 6 kts | 148° |
| 2026-05-04 07:47 | -37.67476 | 144.84373 | 377 ft | 6 kts | 96° |
| 2026-05-04 07:49 | -37.67540 | 144.84696 | 379 ft | 0 kts | 171° |